Flight Track Log - Related Links

Times and Time Zones

All times are in EDT time to prevent confusion due to time zone crossing. See the N654DL flight status page for this flight to view local times or setup timezone preferences in your user account.

Time Position Orientation Groundspeed Altitude Reporting Facility
EDT Latitude Longitude Course Direction KTS MPH feet Rate Location/Type
Tue 10:59:23 AM 37.6500 -122.3500 65° Northeast 178 205 1,400  Level Northern Cal TRACON
Tue 11:00:23 AM 37.6833 -122.3000 50° Northeast 215 247 3,500 2,250 Climbing Northern Cal TRACON
Tue 11:01:15 AM 37.7153 -122.2536 49° Northeast 236 272 5,600 2,655 Climbing Oakland Center
Tue 11:02:00 AM 37.6530 -122.2381 72° East  Level FlightAware Approximate
Tue 11:02:16 AM 37.7486 -122.1714 63° Northeast 264 304 8,500  Level Oakland Center
Tue 11:03:00 AM 37.7021 -122.0781 63° Northeast  Level FlightAware Approximate
Tue 11:03:17 AM 37.7803 -122.0586 70° East 285 328 10,900  Level Oakland Center
Tue 11:04:00 AM 37.7613 -121.9232 65° Northeast  Level FlightAware Approximate
Tue 11:04:18 AM 37.8128 -121.9419 71° East 348 400 12,500  Level Oakland Center
Tue 11:05:20 AM 37.8478 -121.8192 70° East 370 426 15,100 2,341 Climbing Oakland Center
Tue 11:06:21 AM 37.8831 -121.6928 70° East 382 440 17,300 2,016 Climbing Oakland Center
Tue 11:07:22 AM 37.9197 -121.5606 71° East 395 455 19,200 1,869 Climbing Oakland Center
Tue 11:08:23 AM 37.9617 -121.4086 71° East 415 478 21,100 1,918 Climbing Oakland Center
Tue 11:09:24 AM 38.0014 -121.2678 70° East 424 488 23,100 1,574 Climbing Oakland Center
Tue 11:10:25 AM 38.0419 -121.1197 71° East 443 510 24,300 1,317 Climbing Oakland Center
Tue 11:11:27 AM 38.0836 -120.9683 71° East 455 524 25,800 1,415 Climbing Oakland Center
Tue 11:12:28 AM 38.1206 -120.8100 73° East 468 539 27,200 1,328 Climbing Oakland Center
Tue 11:13:29 AM 38.1528 -120.6481 76° East 475 547 28,500 1,377 Climbing Oakland Center
Tue 11:14:30 AM 38.1797 -120.4833 78° East 478 550 30,000 1,475 Climbing Oakland Center
Tue 11:15:31 AM 38.2106 -120.3197 76° East 477 549 31,500 1,463 Climbing Oakland Center
Tue 11:16:33 AM 38.2458 -120.1244 77° East 474 545 33,000 1,317 Climbing Oakland Center
Tue 11:17:34 AM 38.2733 -119.9631 78° East 471 542 34,200 1,230 Climbing Oakland Center
Tue 11:18:35 AM 38.3017 -119.8033 77° East 464 534 35,500 984 Climbing Oakland Center
Tue 11:19:36 AM 38.3283 -119.6419 78° East 467 537 36,200 689 Climbing Oakland Center
Tue 11:20:37 AM 38.3567 -119.4794 77° East 469 540 36,900 393 Climbing Oakland Center
Tue 11:21:38 AM 38.3811 -119.3328 78° East 467 537 37,000 33 Climbing Oakland Center
Tue 11:23:41 AM 38.4389 -118.9806 78° East 466 536 37,000  Level Oakland Center
Tue 11:24:42 AM 38.4656 -118.8183 78° East 469 540 37,000  Level Oakland Center
Tue 11:25:43 AM 38.4908 -118.6572 79° East 467 537 37,000  Level Oakland Center
Tue 11:26:44 AM 38.5172 -118.4953 78° East 468 539 37,000  Level Oakland Center
Tue 11:27:45 AM 38.5433 -118.3322 78° East 471 542 37,000  Level Oakland Center
Tue 11:28:46 AM 38.5681 -118.1703 79° East 468 539 37,000  Level Oakland Center
Tue 11:29:47 AM 38.5956 -117.9956 79° East 469 540 37,000  Level Oakland Center
Tue 11:30:49 AM 38.6203 -117.8339 79° East 465 535 37,000  Level Oakland Center
Tue 11:31:20 AM 38.6347 -117.7364 79° East 464 534 37,000  Level Salt Lake Center
Tue 11:31:50 AM 38.6447 -117.6711 79° East 463 533 37,000  Level Oakland Center
Tue 11:32:51 AM 38.6686 -117.5081 79° East 463 533 37,000  Level Oakland Center
Tue 11:33:52 AM 38.6933 -117.3433 79° East 468 539 37,000  Level Oakland Center
Tue 11:34:26 AM 38.7075 -117.2419 80° East 473 544 37,000  Level Salt Lake Center
Tue 11:35:28 AM 38.7325 -117.0706 79° East 483 556 37,000  Level Salt Lake Center
Tue 11:35:55 AM 38.7428 -117.0025 79° East 485 558 37,000  Level Oakland Center
Tue 11:36:56 AM 38.7675 -116.8269 80° East 496 571 37,000  Level Oakland Center
Tue 11:37:32 AM 38.7825 -116.7214 80° East 498 573 37,000  Level Salt Lake Center
Tue 11:38:34 AM 38.8083 -116.5439 79° East 503 579 37,000  Level Salt Lake Center
Tue 11:38:59 AM 38.8228 -116.4369 80° East 506 582 37,000  Level Oakland Center
Tue 11:39:36 AM 38.8378 -116.3289 80° East 509 586 37,000  Level Salt Lake Center
Tue 11:40:38 AM 38.8622 -116.1497 80° East 509 586 37,000  Level Salt Lake Center
Tue 11:41:40 AM 38.8864 -115.9692 80° East 511 588 37,000  Level Salt Lake Center
Tue 11:42:42 AM 38.9106 -115.7892 80° East 512 589 37,000  Level Salt Lake Center
Tue 11:43:44 AM 38.9347 -115.6078 80° East 515 593 37,000  Level Salt Lake Center
Tue 11:44:45 AM 38.9589 -115.4253 80° East 517 595 37,000  Level Salt Lake Center
Tue 11:45:47 AM 38.9858 -115.2244 80° East 523 602 37,000  Level Salt Lake Center
Tue 11:46:49 AM 39.0089 -115.0425 81° East 519 597 37,000  Level Salt Lake Center
Tue 11:47:51 AM 39.0264 -114.8572 83° East 524 603 37,000  Level Salt Lake Center
Tue 11:48:53 AM 39.0150 -114.6275 94° East 539 620 37,000  Level Salt Lake Center
Tue 11:49:55 AM 39.0044 -114.4392 94° East 532 612 37,000  Level Salt Lake Center
Tue 11:50:57 AM 38.9944 -114.2478 94° East 536 617 37,000  Level Salt Lake Center
Tue 11:51:59 AM 38.9836 -114.0578 94° East 535 616 37,000  Level Salt Lake Center
Tue 11:53:01 AM 38.9714 -113.8692 95° East 530 610 37,000  Level Salt Lake Center
Tue 11:54:03 AM 38.9606 -113.6783 94° East 535 616 37,000  Level Salt Lake Center
Tue 11:55:05 AM 38.9492 -113.4894 94° East 533 613 37,000  Level Salt Lake Center
Tue 11:56:08 AM 38.9364 -113.2608 94° East 535 616 37,000  Level Salt Lake Center
Tue 11:57:09 AM 38.9244 -113.0725 95° East 533 613 37,000  Level Salt Lake Center
Tue 11:58:11 AM 38.9119 -112.8842 95° East 531 611 37,000  Level Salt Lake Center
Tue 11:59:13 AM 38.8986 -112.6953 95° East 531 611 37,000  Level Salt Lake Center
Tue 12:00:15 PM 38.8853 -112.5067 95° East 531 611 37,000  Level Salt Lake Center
Tue 12:01:17 PM 38.8728 -112.3178 95° East 530 610 37,000  Level Salt Lake Center
Tue 12:02:19 PM 38.8586 -112.1294 95° East 531 611 37,000  Level Salt Lake Center
Tue 12:03:21 PM 38.8419 -111.9044 95° East 528 608 37,000  Level Salt Lake Center
Tue 12:04:23 PM 38.8283 -111.7158 95° East 530 610 37,000  Level Salt Lake Center
Tue 12:05:25 PM 38.8136 -111.5281 96° East 530 610 37,000  Level Salt Lake Center
Tue 12:06:27 PM 38.7978 -111.3397 96° East 531 611 37,000  Level Salt Lake Center
Tue 12:07:29 PM 38.7831 -111.1519 96° East 530 610 37,000  Level Salt Lake Center
Tue 12:08:31 PM 38.7686 -110.9661 96° East 526 605 37,000  Level Salt Lake Center
Tue 12:09:33 PM 38.7500 -110.7456 96° East 530 610 37,000  Level Salt Lake Center
Tue 12:10:35 PM 38.7325 -110.5647 97° East 533 613 37,000  Level Salt Lake Center
Tue 12:11:37 PM 38.7156 -110.3564 96° East 531 611 37,000  Level Salt Lake Center
Tue 12:12:31 PM 38.7025 -110.2069 96° East 529 609 37,000  Level Denver Center
Tue 12:13:33 PM 38.6833 -109.9986 97° East 529 609 37,000  Level Denver Center
Tue 12:14:35 PM 38.6664 -109.8206 97° East 528 608 37,000  Level Denver Center
Tue 12:15:37 PM 38.6472 -109.6150 97° East 523 602 37,000  Level Denver Center
Tue 12:16:39 PM 38.6300 -109.4353 97° East 530 610 37,000  Level Denver Center
Tue 12:17:41 PM 38.6275 -109.2267 91° East 529 609 37,000  Level Denver Center
Tue 12:18:44 PM 38.6328 -109.0503 88° East 521 600 37,000  Level Denver Center
Tue 12:19:46 PM 38.6400 -108.8422 87° East 527 606 37,000  Level Denver Center
Tue 12:20:48 PM 38.6467 -108.6664 87° East 521 600 37,000  Level Denver Center
Tue 12:21:50 PM 38.6567 -108.4667 86° East 508 585 37,000  Level Denver Center
Tue 12:22:52 PM 38.6642 -108.2933 87° East 511 588 37,000  Level Denver Center
Tue 12:23:54 PM 38.6742 -108.0878 86° East 518 596 37,000  Level Denver Center
Tue 12:24:56 PM 38.6836 -107.9072 86° East 531 611 37,000  Level Denver Center
Tue 12:25:58 PM 38.6961 -107.6967 86° East 533 613 37,000  Level Denver Center
Tue 12:27:00 PM 38.7064 -107.5167 86° East 532 612 37,000  Level Denver Center
Tue 12:28:02 PM 38.7022 -107.3092 91° East 528 608 37,000  Level Denver Center
Tue 12:29:04 PM 38.6800 -107.1381 99° East 526 605 37,000  Level Denver Center
Tue 12:30:06 PM 38.6567 -106.9553 99° East 525 604 37,000  Level Denver Center
Tue 12:31:08 PM 38.6317 -106.7739 100° East 521 600 37,000  Level Denver Center
Tue 12:32:10 PM 38.6006 -106.5544 100° East 524 603 37,000  Level Denver Center
Tue 12:33:12 PM 38.5744 -106.3681 100° East 532 612 37,000  Level Denver Center
Tue 12:34:15 PM 38.5497 -106.1803 99° East 537 618 37,000  Level Denver Center
Tue 12:35:17 PM 38.5192 -105.9694 100° East 537 618 37,000  Level Denver Center
Tue 12:36:19 PM 38.4931 -105.7886 100° East 541 623 37,000  Level Denver Center
Tue 12:37:21 PM 38.4656 -105.5989 100° East 540 621 37,000  Level Denver Center
Tue 12:38:23 PM 38.4378 -105.4103 101° East 540 621 37,000  Level Denver Center
Tue 12:39:25 PM 38.4053 -105.1872 100° East 545 627 37,000  Level Denver Center
Tue 12:40:27 PM 38.3764 -104.9992 101° East 540 621 37,000  Level Denver Center
Tue 12:41:29 PM 38.3478 -104.8103 101° East 540 621 37,000  Level Denver Center
Tue 12:42:31 PM 38.3175 -104.6136 101° East 542 624 37,000  Level Denver Center
Tue 12:43:33 PM 38.2881 -104.4364 102° East 537 618 37,000  Level Denver Center
Tue 12:44:35 PM 38.2561 -104.2297 101° East 531 611 37,000  Level Denver Center
Tue 12:45:37 PM 38.2283 -104.0544 101° East 526 605 37,000  Level Denver Center
Tue 12:46:39 PM 38.1956 -103.8539 102° East 518 596 37,000  Level Denver Center
Tue 12:47:54 PM 38.1633 -103.6533 101° East 516 594 37,000  Level Denver Center
Tue 12:48:56 PM 38.1300 -103.4525 102° East 518 596 37,000  Level Denver Center
Tue 12:49:58 PM 38.1014 -103.2814 102° East 517 595 37,000  Level Denver Center
Tue 12:51:00 PM 38.0861 -103.0750 95° East 531 611 37,000  Level Denver Center
Tue 12:52:02 PM 38.0750 -102.8944 94° East 537 618 37,000  Level Denver Center
Tue 12:53:04 PM 38.0600 -102.6817 95° East 543 625 37,000  Level Denver Center
Tue 12:54:06 PM 38.0481 -102.4975 95° East 547 629 37,000  Level Denver Center
Tue 12:55:08 PM 38.0344 -102.2814 95° East 551 634 37,000  Level Denver Center
Tue 12:56:10 PM 38.0244 -102.0961 94° East 551 634 37,000  Level Denver Center
Tue 12:57:12 PM 37.9983 -101.9161 100° East 545 627 37,000  Level Denver Center
Tue 12:58:14 PM 37.9583 -101.7111 104° East 538 619 37,000  Level Denver Center
Tue 12:59:17 PM 37.9242 -101.5372 104° East 533 613 37,000  Level Denver Center
Tue 01:00:19 PM 37.8844 -101.3342 104° East 532 612 37,000  Level Denver Center
Tue 01:01:21 PM 37.8500 -101.1628 104° East 525 604 37,000  Level Denver Center
Tue 01:02:22 PM 37.8153 -100.9894 104° East 525 604 37,000  Level Kansas City Center
Tue 01:03:23 PM 37.7753 -100.7867 104° East 522 601 37,000  Level Kansas City Center
Tue 01:04:24 PM 37.7431 -100.6256 104° East 520 598 37,000  Level Kansas City Center
Tue 01:05:25 PM 37.7061 -100.4450 104° East 518 596 37,000  Level Kansas City Center
Tue 01:06:28 PM 37.6653 -100.2500 105° East 514 592 37,000  Level Kansas City Center
Tue 01:07:30 PM 37.6311 -100.0831 104° East 513 590 37,000  Level Kansas City Center
Tue 01:08:31 PM 37.5922 -99.8881 104° East 513 590 37,000  Level Kansas City Center
Tue 01:09:32 PM 37.5564 -99.7222 105° East 512 589 37,000  Level Kansas City Center
Tue 01:10:33 PM 37.5192 -99.5572 106° East 511 588 37,000  Level Kansas City Center
Tue 01:11:34 PM 37.4858 -99.3883 104° East 511 588 37,000  Level Kansas City Center
Tue 01:12:35 PM 37.4492 -99.2178 105° East 508 585 37,000  Level Kansas City Center
Tue 01:13:39 PM 37.4011 -99.0108 106° East 513 590 37,000  Level Kansas City Center
Tue 01:14:40 PM 37.3636 -98.8392 105° East 512 589 37,000  Level Kansas City Center
Tue 01:15:42 PM 37.3258 -98.6708 106° East 507 583 37,000  Level Kansas City Center
Tue 01:16:43 PM 37.2881 -98.5014 106° East 506 582 37,000  Level Kansas City Center
Tue 01:17:45 PM 37.2503 -98.3339 106° East 503 579 37,000  Level Kansas City Center
Tue 01:18:46 PM 37.2131 -98.1672 106° East 502 578 37,000  Level Kansas City Center
Tue 01:19:46 PM 37.1747 -98.0008 106° East 501 577 37,000  Level Kansas City Center
Tue 01:20:50 PM 37.1294 -97.8028 106° East 499 574 37,000  Level Kansas City Center
Tue 01:21:51 PM 37.0914 -97.6383 106° East 497 572 37,000  Level Kansas City Center
Tue 01:22:52 PM 37.0525 -97.4706 106° East 502 578 37,000  Level Kansas City Center
Tue 01:23:56 PM 37.0136 -97.3025 106° East 504 580 37,000  Level Kansas City Center
Tue 01:24:56 PM 36.9750 -97.1344 106° East 504 580 37,000  Level Kansas City Center
Tue 01:25:56 PM 36.9319 -96.9731 108° East 497 572 37,000  Level Kansas City Center
Tue 01:27:01 PM 36.8825 -96.7700 107° East 506 582 37,000  Level Kansas City Center
Tue 01:28:02 PM 36.8475 -96.6181 106° East 510 587 37,000  Level Kansas City Center
Tue 01:29:03 PM 36.8078 -96.4450 106° East 514 592 37,000  Level Kansas City Center
Tue 01:30:04 PM 36.7564 -96.2381 107° East 518 596 37,000  Level Kansas City Center
Tue 01:31:05 PM 36.7142 -96.0661 107° East 518 596 37,000  Level Kansas City Center
Tue 01:32:09 PM 36.6708 -95.8939 107° East 519 597 37,000  Level Kansas City Center
Tue 01:33:10 PM 36.6272 -95.7214 107° East 518 596 37,000  Level Kansas City Center
Tue 01:34:11 PM 36.5828 -95.5444 107° East 517 595 37,000  Level Kansas City Center
Tue 01:35:12 PM 36.5397 -95.3731 107° East 518 596 37,000  Level Kansas City Center
Tue 01:36:14 PM 36.4961 -95.2014 107° East 520 598 37,000  Level Kansas City Center
Tue 01:37:18 PM 36.4489 -95.0244 108° East 520 598 37,000  Level Kansas City Center
Tue 01:38:18 PM 36.4044 -94.8528 108° East 519 597 37,000  Level Kansas City Center
Tue 01:39:19 PM 36.3592 -94.6842 108° East 515 593 37,000  Level Kansas City Center
Tue 01:39:46 PM 36.3350 -94.5897 108° East 510 587 37,000  Level Memphis Center
Tue 01:40:46 PM 36.2928 -94.4175 107° East 510 587 37,000  Level Memphis Center
Tue 01:41:46 PM 36.2553 -94.2844 109° East 510 587 37,000  Level Memphis Center
Tue 01:42:46 PM 36.2047 -94.1019 109° East 510 587 37,000  Level Memphis Center
Tue 01:43:46 PM 36.1594 -93.9328 108° East 510 587 37,000  Level Memphis Center
Tue 01:44:46 PM 36.1142 -93.7664 109° East 510 587 37,000  Level Memphis Center
Tue 01:45:46 PM 36.0686 -93.6003 109° East 510 587 37,000  Level Memphis Center
Tue 01:46:46 PM 36.0247 -93.4367 108° East 510 587 37,000  Level Memphis Center
Tue 01:47:46 PM 35.9786 -93.2708 109° East 510 587 37,000  Level Memphis Center
Tue 01:48:46 PM 35.9286 -93.0897 109° East 510 587 37,000  Level Memphis Center
Tue 01:49:46 PM 35.8842 -92.9242 108° East 510 587 37,000  Level Memphis Center
Tue 01:50:46 PM 35.8372 -92.7614 110° East 510 587 37,000  Level Memphis Center
Tue 01:51:46 PM 35.7903 -92.5964 109° East 510 587 37,000  Level Memphis Center
Tue 01:52:46 PM 35.7453 -92.4339 109° East 510 587 37,000  Level Memphis Center
Tue 01:53:46 PM 35.6978 -92.2717 110° East 504 580 37,000  Level Memphis Center
Tue 01:54:46 PM 35.6522 -92.1097 109° East 504 580 37,000  Level Memphis Center
Tue 01:55:46 PM 35.6064 -91.9503 109° East 504 580 37,000  Level Memphis Center
Tue 01:56:46 PM 35.5603 -91.7889 109° East 498 573 37,000  Level Memphis Center
Tue 01:57:46 PM 35.5119 -91.6272 110° East 498 573 37,000  Level Memphis Center
Tue 01:58:46 PM 35.4656 -91.4686 110° East 498 573 37,000  Level Memphis Center
Tue 01:59:46 PM 35.4292 -91.3381 109° East 498 573 37,000  Level Memphis Center
Tue 02:00:46 PM 35.3700 -91.1464 111° Southeast 498 573 37,000  Level Memphis Center
Tue 02:01:46 PM 35.3228 -90.9881 110° East 493 567 37,000  Level Memphis Center
Tue 02:02:46 PM 35.2714 -90.8250 111° Southeast 493 567 37,000  Level Memphis Center
Tue 02:03:46 PM 35.2239 -90.6800 112° Southeast 498 573 37,000  Level Memphis Center
Tue 02:04:46 PM 35.1783 -90.5222 109° East 498 573 37,000  Level Memphis Center
Tue 02:05:46 PM 35.1283 -90.3569 110° East 498 573 37,000  Level Memphis Center
Tue 02:06:46 PM 35.0803 -90.1972 110° East 503 579 37,000  Level Memphis Center
Tue 02:07:46 PM 35.0300 -90.0375 111° Southeast 503 579 37,000  Level Memphis Center
Tue 02:08:46 PM 34.9958 -89.8703 104° East 508 585 37,000  Level Memphis Center
Tue 02:09:46 PM 34.9700 -89.7008 100° East 500 575 37,000  Level Memphis Center
Tue 02:10:46 PM 34.9378 -89.5186 102° East 495 570 37,000  Level Memphis Center
Tue 02:11:46 PM 34.9242 -89.3694 96° East 495 570 37,000  Level Memphis Center
Tue 02:12:46 PM 34.8997 -89.2125 101° East 482 555 37,000  Level Memphis Center
Tue 02:13:46 PM 34.8794 -89.0636 99° East 464 534 37,000 -50 Level Memphis Center
Tue 02:14:46 PM 34.8547 -88.9069 101° East 464 534 36,900 -500 Descending Memphis Center
Tue 02:15:46 PM 34.8322 -88.7556 100° East 464 534 36,000 -450 Descending Memphis Center
Tue 02:16:46 PM 34.8050 -88.5992 102° East 469 540 36,000  Level Memphis Center
Tue 02:17:46 PM 34.7819 -88.4456 100° East 469 540 36,000  Level Memphis Center
Tue 02:18:46 PM 34.7586 -88.2919 100° East 469 540 36,000 -150 Level Memphis Center
Tue 02:19:46 PM 34.7328 -88.1383 102° East 469 540 35,700 -500 Descending Memphis Center
Tue 02:20:46 PM 34.7072 -87.9850 101° East 469 540 35,000 -350 Descending Memphis Center
Tue 02:21:46 PM 34.6831 -87.8264 100° East 469 540 35,000 -450 Level Memphis Center
Tue 02:22:46 PM 34.6611 -87.6756 100° East 469 540 34,100 -603 Descending Memphis Center
Tue 02:25:05 PM 34.5981 -87.3142 102° East 459 528 33,000 -332 Descending Atlanta Center
Tue 02:26:05 PM 34.5667 -87.1542 103° East 472 543 33,000  Level Atlanta Center
Tue 02:27:05 PM 34.5353 -86.9917 103° East 485 558 33,000  Level Atlanta Center
Tue 02:28:05 PM 34.5056 -86.8317 103° East 485 558 33,000 -750 Level Atlanta Center
Tue 02:29:05 PM 34.4736 -86.6694 103° East 485 558 31,500 -1,450 Descending Atlanta Center
Tue 02:30:05 PM 34.4394 -86.5044 104° East 491 565 30,100 -1,300 Descending Atlanta Center
Tue 02:31:05 PM 34.4094 -86.3400 102° East 496 571 28,900 -1,150 Descending Atlanta Center
Tue 02:32:05 PM 34.3789 -86.1781 103° East 491 565 27,800 -1,250 Descending Atlanta Center
Tue 02:33:05 PM 34.3461 -86.0114 103° East 491 565 26,400 -1,500 Descending Atlanta Center
Tue 02:34:05 PM 34.3133 -85.8469 104° East 491 565 24,800 -2,100 Descending Atlanta Center
Tue 02:35:05 PM 34.2819 -85.6931 104° East 481 554 22,200 -2,350 Descending Atlanta Center
Tue 02:36:05 PM 34.2506 -85.5442 104° East 467 537 20,100 -2,300 Descending Atlanta Center
Tue 02:37:05 PM 34.2208 -85.4031 104° East 444 511 17,600 -2,400 Descending Atlanta Center
Tue 02:38:05 PM 34.1931 -85.2669 104° East 428 493 15,300 -2,150 Descending Atlanta Center
Tue 02:39:05 PM 34.1858 -85.1336 94° East 405 466 13,300 -1,150 Descending Atlanta Center
Tue 02:40:05 PM 34.1492 -85.0378 115° Southeast 331 381 13,000 -150 Descending Atlanta Center
Tue 02:41:05 PM 34.0703 -84.9992 158° South 285 328 13,000 -500 Level Atlanta Center
Tue 02:42:05 PM 33.9892 -84.9383 148° Southeast 301 346 12,000 -1,200 Descending Atlanta Center
Tue 02:43:05 PM 33.9103 -84.9050 161° South 312 359 10,600 -1,350 Descending Atlanta Center
Tue 02:44:05 PM 33.8289 -84.8942 174° South 301 346 9,300 -800 Descending Atlanta Center
Tue 02:45:05 PM 33.7517 -84.8883 176° South 289 333 9,000 -600 Descending Atlanta Center
Tue 02:46:05 PM 33.6744 -84.8825 176° South 284 327 8,100 -1,071 Descending Atlanta Center
Tue 02:46:57 PM 33.6333 -84.8333 135° Southeast 279 321 7,000 -1,179 Descending Atlanta TRACON
Tue 02:47:57 PM 33.6333 -84.7333 90° East 253 291 5,900 -1,263 Descending Atlanta TRACON
Tue 02:48:51 PM 33.6333 -84.6667 90° East 220 253 4,600 -1,444 Descending Atlanta TRACON

Login

Don't have an account? Register now (free) for customized features, flight alerts, and more!